createdAt,value
2022-08-22T00:03:00.666Z,5.82
2022-08-22T00:03:04.187Z,4.47
2022-08-22T00:03:04.652Z,6.65
2022-08-22T00:03:04.818Z,2.17
2022-08-22T00:03:30.361Z,2.40
2022-08-22T00:06:31.571Z,1.70
2022-08-22T00:09:29.851Z,1.63
2022-08-22T00:12:29.559Z,2.30
2022-08-22T00:15:42.141Z,3.67
2022-08-22T00:18:28.355Z,1.98
2022-08-22T00:21:24.955Z,2.03
2022-08-22T00:24:44.040Z,2.22
2022-08-22T00:27:23.686Z,3.65
2022-08-22T00:30:13.113Z,2.05
2022-08-22T00:32:56.834Z,2.83
2022-08-22T00:35:45.096Z,1.83
2022-08-22T00:38:42.810Z,2.30
2022-08-22T00:41:34.055Z,1.80
2022-08-22T00:45:06.514Z,2.08
2022-08-22T00:48:08.120Z,2.50
2022-08-22T00:51:20.863Z,2.50
2022-08-22T00:54:31.172Z,2.10
2022-08-22T00:57:41.427Z,2.00
2022-08-22T01:00:30.046Z,2.63
2022-08-22T01:03:13.824Z,1.80
2022-08-22T01:06:12.171Z,4.50
2022-08-22T01:09:33.029Z,3.80
2022-08-22T01:15:15.660Z,1.90
2022-08-22T01:18:18.919Z,6.57
2022-08-22T01:21:35.229Z,3.97
2022-08-22T01:24:31.458Z,3.63
2022-08-22T01:27:17.656Z,2.53
2022-08-22T01:30:18.250Z,2.92
2022-08-22T01:33:22.947Z,4.55
2022-08-22T01:35:55.960Z,4.25
2022-08-22T01:38:59.377Z,3.22
2022-08-22T01:41:57.646Z,4.68
2022-08-22T01:45:08.822Z,5.05
2022-08-22T01:47:40.847Z,4.60
2022-08-22T01:50:32.858Z,3.90
2022-08-22T01:53:33.060Z,6.07
2022-08-22T01:56:15.273Z,6.10
2022-08-22T01:59:11.403Z,5.03
2022-08-22T02:01:59.651Z,7.78
2022-08-22T02:04:55.257Z,4.35
2022-08-22T02:07:46.269Z,5.82
2022-08-22T02:10:55.179Z,4.47
2022-08-22T02:13:49.591Z,5.10
2022-08-22T02:16:39.047Z,6.47
2022-08-22T02:19:15.005Z,6.13
2022-08-22T02:22:02.224Z,5.93
2022-08-22T02:24:54.661Z,9.68
2022-08-22T02:27:52.332Z,5.75
2022-08-22T02:30:42.978Z,6.72
2022-08-22T02:36:17.122Z,6.03
2022-08-22T02:39:13.721Z,10.05
2022-08-22T02:42:15.166Z,6.30
2022-08-22T02:44:53.503Z,8.10
2022-08-22T02:47:59.702Z,7.70
2022-08-22T02:50:49.445Z,8.70
2022-08-22T02:53:48.596Z,7.88
2022-08-22T02:56:23.879Z,8.68
2022-08-22T02:59:15.527Z,9.20
2022-08-22T03:01:46.942Z,5.85
2022-08-22T03:04:32.577Z,5.55
2022-08-22T03:07:36.479Z,7.95
2022-08-22T03:10:23.589Z,7.60
2022-08-22T03:13:09.764Z,5.97
2022-08-22T03:15:58.928Z,7.53
2022-08-22T03:19:06.505Z,7.32
2022-08-22T03:22:08.683Z,7.13
2022-08-22T03:24:48.935Z,8.27
2022-08-22T03:27:35.920Z,8.02
2022-08-22T03:30:17.974Z,7.88
2022-08-22T03:32:59.553Z,7.65
2022-08-22T03:35:46.383Z,8.73
2022-08-22T03:38:34.909Z,10.23
2022-08-22T03:41:39.194Z,6.70
2022-08-22T03:44:31.687Z,6.43
2022-08-22T03:47:22.175Z,6.65
2022-08-22T03:50:01.076Z,8.18
2022-08-22T03:53:15.288Z,6.00
2022-08-22T03:56:19.913Z,13.18
2022-08-22T04:02:33.429Z,4.15
2022-08-22T04:05:36.810Z,5.07
2022-08-22T04:08:33.937Z,4.18
2022-08-22T04:11:25.694Z,7.00
2022-08-22T04:14:30.068Z,7.22
2022-08-22T04:17:23.389Z,4.38
2022-08-22T04:20:23.867Z,3.83
2022-08-22T04:23:12.653Z,5.70
2022-08-22T04:25:50.917Z,3.97
2022-08-22T04:28:33.194Z,4.68
2022-08-22T04:31:18.743Z,6.18
2022-08-22T04:34:25.522Z,3.63
2022-08-22T04:37:06.829Z,3.95
2022-08-22T04:39:49.569Z,3.53
2022-08-22T04:42:38.931Z,5.35
2022-08-22T04:45:31.086Z,2.72
2022-08-22T04:48:34.827Z,2.03
2022-08-22T04:51:15.536Z,2.38
2022-08-22T04:54:24.293Z,3.28
2022-08-22T04:57:44.434Z,1.50
2022-08-22T05:00:15.959Z,4.75
2022-08-22T05:02:51.712Z,1.50
2022-08-22T05:05:26.134Z,2.97
2022-08-22T05:07:58.783Z,2.45
2022-08-22T05:10:40.105Z,2.13
2022-08-22T05:13:47.376Z,3.60
2022-08-22T05:16:20.639Z,2.35
2022-08-22T05:19:14.435Z,2.65
2022-08-22T05:21:48.219Z,2.83
2022-08-22T05:24:48.581Z,4.15
2022-08-22T05:27:34.960Z,3.63
2022-08-22T05:30:13.561Z,2.85
2022-08-22T05:33:21.839Z,5.57
2022-08-22T05:36:21.469Z,3.58
2022-08-22T05:39:04.948Z,2.30
2022-08-22T05:41:37.541Z,2.22
2022-08-22T05:44:16.273Z,2.40
2022-08-22T05:46:53.557Z,2.10
2022-08-22T05:49:48.727Z,2.35
2022-08-22T05:52:47.503Z,2.08
2022-08-22T05:55:48.807Z,2.15
2022-08-22T05:58:44.447Z,2.05
2022-08-22T06:01:43.273Z,2.40
2022-08-22T06:05:01.034Z,2.50
2022-08-22T06:07:43.733Z,2.40
2022-08-22T06:10:25.953Z,2.72
2022-08-22T06:13:28.148Z,2.60
2022-08-22T06:16:21.106Z,2.67
2022-08-22T06:18:52.191Z,2.85
2022-08-22T06:21:39.541Z,3.75
2022-08-22T06:24:16.643Z,7.43
2022-08-22T06:26:49.817Z,9.23
2022-08-22T06:29:44.510Z,11.63
2022-08-22T06:32:44.554Z,9.05
2022-08-22T06:35:26.732Z,13.25
2022-08-22T06:37:59.898Z,9.95
2022-08-22T06:40:29.668Z,8.77
2022-08-22T06:42:58.662Z,13.50
2022-08-22T06:45:31.349Z,13.10
2022-08-22T06:48:21.767Z,9.15
2022-08-22T06:50:56.359Z,13.80
2022-08-22T06:53:48.519Z,15.35
2022-08-22T06:56:35.245Z,13.70
2022-08-22T06:59:13.006Z,15.85
2022-08-22T07:01:58.274Z,16.50
2022-08-22T07:04:27.642Z,12.52
2022-08-22T07:06:59.148Z,11.07
2022-08-22T07:09:37.165Z,11.55
2022-08-22T07:12:21.865Z,11.82
2022-08-22T07:14:58.030Z,14.18
2022-08-22T07:17:30.094Z,14.25
2022-08-22T07:20:19.833Z,16.35
2022-08-22T07:23:09.213Z,13.82
2022-08-22T07:25:52.292Z,27.05
2022-08-22T07:28:51.217Z,18.83
2022-08-22T07:31:40.062Z,16.05
2022-08-22T07:34:45.128Z,18.20
2022-08-22T07:37:33.879Z,15.00
2022-08-22T07:40:35.753Z,14.70
2022-08-22T07:43:33.001Z,12.15
2022-08-22T07:46:37.224Z,11.88
2022-08-22T07:49:24.756Z,10.18
2022-08-22T07:51:54.843Z,16.90
2022-08-22T07:54:57.950Z,13.98
2022-08-22T07:57:41.132Z,16.83
2022-08-22T08:00:20.565Z,10.68
2022-08-22T08:02:56.610Z,18.83
2022-08-22T08:05:28.726Z,11.57
2022-08-22T08:07:57.260Z,12.70
2022-08-22T08:10:34.630Z,14.10
2022-08-22T08:13:17.484Z,15.20
2022-08-22T08:15:48.163Z,17.38
2022-08-22T08:18:22.217Z,13.18
2022-08-22T08:21:02.177Z,10.95
2022-08-22T08:23:39.552Z,14.15
2022-08-22T08:26:23.710Z,14.88
2022-08-22T08:28:55.835Z,13.88
2022-08-22T08:31:43.222Z,9.27
2022-08-22T08:34:20.769Z,6.55
2022-08-22T08:37:04.677Z,7.43
2022-08-22T08:39:35.354Z,4.55
2022-08-22T08:43:00.201Z,3.45
2022-08-22T08:45:40.471Z,4.47
2022-08-22T08:49:14.218Z,3.72
2022-08-22T08:52:32.011Z,4.43
2022-08-22T08:55:19.829Z,2.22
2022-08-22T09:01:14.172Z,4.35
2022-08-22T09:04:27.748Z,3.83
2022-08-22T09:07:51.438Z,4.07
2022-08-22T09:11:04.577Z,6.65
2022-08-22T09:14:07.467Z,3.20
2022-08-22T09:16:36.194Z,5.80
2022-08-22T09:19:30.164Z,4.72
2022-08-22T09:22:50.903Z,4.82
2022-08-22T09:28:45.961Z,4.15
2022-08-22T09:31:32.878Z,3.85
2022-08-22T09:34:29.979Z,3.67
2022-08-22T09:37:16.776Z,5.28
2022-08-22T09:40:15.241Z,4.55
2022-08-22T09:40:17.291Z,7.28
2022-08-22T09:43:11.735Z,5.40
2022-08-22T09:46:07.080Z,3.70
2022-08-22T09:48:53.092Z,3.65
2022-08-22T09:51:45.372Z,3.47
2022-08-22T09:54:49.591Z,2.40
2022-08-22T09:57:41.551Z,3.78
2022-08-22T10:00:22.306Z,3.92
2022-08-22T10:03:20.025Z,2.67
2022-08-22T10:06:05.552Z,2.60
2022-08-22T10:08:47.074Z,1.70
2022-08-22T10:11:38.739Z,2.60
2022-08-22T10:14:22.782Z,2.63
2022-08-22T10:17:21.993Z,2.40
2022-08-22T10:20:25.125Z,2.72
2022-08-22T10:23:21.010Z,2.53
2022-08-22T10:26:25.699Z,2.60
2022-08-22T10:29:22.368Z,2.92
2022-08-22T10:32:34.849Z,4.40
2022-08-22T10:35:26.412Z,2.20
2022-08-22T10:38:12.318Z,2.40
2022-08-22T10:41:19.612Z,1.92
2022-08-22T10:44:17.277Z,1.60
2022-08-22T10:47:02.274Z,2.30
2022-08-22T10:49:37.670Z,2.22
2022-08-22T10:52:30.806Z,2.08
2022-08-22T10:55:09.969Z,1.60
2022-08-22T10:58:10.964Z,4.53
2022-08-22T11:00:59.735Z,2.58
2022-08-22T11:03:49.036Z,2.08
2022-08-22T11:07:06.322Z,4.00
2022-08-22T11:09:43.743Z,3.67
2022-08-22T11:12:34.648Z,3.97
2022-08-22T11:15:08.666Z,4.13
2022-08-22T11:18:17.860Z,5.35
2022-08-22T11:21:03.537Z,3.95
2022-08-22T11:23:55.279Z,4.03
2022-08-22T11:26:53.135Z,5.00
2022-08-22T11:29:55.265Z,5.07
2022-08-22T11:32:44.433Z,5.47
2022-08-22T11:35:39.965Z,7.53
2022-08-22T11:38:41.242Z,9.10
2022-08-22T11:41:52.500Z,7.93
2022-08-22T11:44:43.025Z,8.57
2022-08-22T11:47:26.683Z,10.38
2022-08-22T11:50:20.549Z,8.52
2022-08-22T11:53:24.505Z,11.32
2022-08-22T11:56:40.132Z,10.65
2022-08-22T11:59:32.704Z,9.60
2022-08-22T12:02:31.314Z,10.85
2022-08-22T12:05:20.223Z,7.63
2022-08-22T12:08:46.394Z,5.43
2022-08-22T12:11:40.082Z,6.35
2022-08-22T12:14:26.850Z,6.35
2022-08-22T12:17:28.530Z,6.30
2022-08-22T12:20:28.428Z,6.05
2022-08-22T12:23:07.132Z,7.82
2022-08-22T12:26:21.955Z,5.88
2022-08-22T12:29:34.029Z,6.53
2022-08-22T12:32:59.611Z,6.88
2022-08-22T12:36:04.823Z,11.57
2022-08-22T12:39:20.371Z,12.48
2022-08-22T12:42:15.313Z,12.00
2022-08-22T12:45:18.878Z,10.35
2022-08-22T12:48:03.769Z,14.70
2022-08-22T12:51:17.531Z,10.43
2022-08-22T12:54:36.242Z,9.52
2022-08-22T12:57:28.858Z,8.32
2022-08-22T13:00:37.320Z,9.95
2022-08-22T13:03:29.641Z,11.65
2022-08-22T13:06:22.024Z,6.65
2022-08-22T13:08:50.545Z,4.97
2022-08-22T13:11:23.346Z,5.40
2022-08-22T13:14:01.475Z,6.63
2022-08-22T13:16:49.085Z,11.73
2022-08-22T13:19:27.461Z,7.93
2022-08-22T13:22:12.421Z,9.48
2022-08-22T13:24:58.421Z,6.43
2022-08-22T13:27:53.241Z,11.25
2022-08-22T13:30:33.433Z,11.85
2022-08-22T13:33:10.068Z,6.45
2022-08-22T13:35:55.597Z,10.13
2022-08-22T13:38:33.215Z,7.57
2022-08-22T13:41:03.841Z,9.25
2022-08-22T13:44:06.086Z,9.93
2022-08-22T13:46:41.450Z,9.60
2022-08-22T13:49:45.874Z,9.40
2022-08-22T13:52:52.506Z,10.55
2022-08-22T13:55:43.261Z,9.88
2022-08-22T13:58:13.463Z,9.48
2022-08-22T14:01:36.046Z,12.13
2022-08-22T14:04:32.111Z,10.90
2022-08-22T14:07:04.457Z,11.80
2022-08-22T14:10:02.637Z,17.75
2022-08-22T14:12:51.092Z,15.07
2022-08-22T14:15:45.353Z,12.48
2022-08-22T14:18:30.383Z,15.18
2022-08-22T14:21:20.495Z,16.92
2022-08-22T14:23:53.570Z,23.42
2022-08-22T14:26:47.823Z,13.90
2022-08-22T14:29:19.823Z,15.82
2022-08-22T14:32:13.626Z,10.88
2022-08-22T14:34:47.542Z,14.32
2022-08-22T14:37:20.372Z,23.52
2022-08-22T14:40:04.031Z,17.38
2022-08-22T14:42:51.177Z,15.27
2022-08-22T14:45:21.828Z,20.75
2022-08-22T14:48:14.529Z,19.98
2022-08-22T14:50:56.517Z,23.40
2022-08-22T14:53:28.106Z,15.60
2022-08-22T14:56:10.911Z,16.58
2022-08-22T14:58:56.747Z,13.30
2022-08-22T15:01:32.892Z,12.38
2022-08-22T15:04:10.102Z,13.60
2022-08-22T15:06:54.393Z,14.07
2022-08-22T15:09:56.440Z,11.30
2022-08-22T15:12:34.986Z,10.35
2022-08-22T15:15:17.015Z,9.82
2022-08-22T15:17:50.896Z,12.82
2022-08-22T15:20:45.197Z,10.63
2022-08-22T15:23:23.547Z,11.73
2022-08-22T15:26:07.224Z,8.65
2022-08-22T15:28:52.519Z,7.38
2022-08-22T15:31:22.325Z,9.65
2022-08-22T15:33:51.138Z,8.63
2022-08-22T15:36:27.402Z,8.65
2022-08-22T15:39:17.342Z,6.97
2022-08-22T15:41:48.343Z,7.65
2022-08-22T15:44:33.075Z,5.82
2022-08-22T15:47:24.176Z,9.27
2022-08-22T15:50:05.549Z,7.30
2022-08-22T15:53:10.211Z,7.63
2022-08-22T15:55:38.012Z,11.80
2022-08-22T15:58:32.464Z,8.93
2022-08-22T16:01:25.646Z,9.05
2022-08-22T16:04:08.326Z,9.82
2022-08-22T16:06:46.672Z,12.10
2022-08-22T16:09:36.967Z,14.23
2022-08-22T16:12:50.795Z,15.98
2022-08-22T16:15:54.075Z,15.00
2022-08-22T16:18:44.022Z,12.20
2022-08-22T16:21:23.406Z,12.52
2022-08-22T16:23:53.984Z,21.50
2022-08-22T16:26:30.610Z,10.80
2022-08-22T16:29:04.425Z,8.90
2022-08-22T16:31:48.670Z,9.73
2022-08-22T16:34:23.846Z,10.93
2022-08-22T16:37:12.370Z,8.45
2022-08-22T16:39:49.956Z,11.25
2022-08-22T16:42:23.509Z,10.35
2022-08-22T16:45:02.800Z,10.98
2022-08-22T16:47:32.819Z,12.23
2022-08-22T16:50:06.132Z,14.35
2022-08-22T16:53:07.673Z,11.80
2022-08-22T16:55:36.150Z,14.45
2022-08-22T16:58:35.717Z,14.82
2022-08-22T17:01:36.467Z,14.40
2022-08-22T17:05:07.203Z,14.75
2022-08-22T17:10:58.631Z,15.23
2022-08-22T17:14:24.119Z,14.85
2022-08-22T17:17:36.344Z,12.02
2022-08-22T17:21:06.270Z,18.65
2022-08-22T17:24:00.413Z,14.77
2022-08-22T17:27:04.447Z,13.40
2022-08-22T17:30:07.371Z,9.23
2022-08-22T17:33:18.891Z,11.35
2022-08-22T17:35:56.200Z,9.25
2022-08-22T17:38:47.655Z,10.27
2022-08-22T17:41:32.788Z,15.77
2022-08-22T17:44:32.066Z,12.95
2022-08-22T17:47:28.131Z,8.45
2022-08-22T17:50:14.224Z,13.10
2022-08-22T17:52:58.869Z,13.05
2022-08-22T17:55:58.035Z,10.35
2022-08-22T17:58:43.251Z,10.48
2022-08-22T18:01:35.839Z,12.23
2022-08-22T18:04:10.176Z,12.25
2022-08-22T18:06:48.834Z,9.45
2022-08-22T18:09:45.233Z,10.80
2022-08-22T18:12:44.575Z,20.83
2022-08-22T18:15:43.469Z,18.25
2022-08-22T18:18:31.175Z,10.90
2022-08-22T18:21:50.887Z,18.77
2022-08-22T18:24:33.153Z,15.52
2022-08-22T18:27:34.475Z,17.67
2022-08-22T18:30:36.818Z,17.85
2022-08-22T18:33:43.328Z,23.02
2022-08-22T18:36:27.179Z,17.75
2022-08-22T18:39:22.203Z,15.93
2022-08-22T18:42:05.007Z,21.55
2022-08-22T18:44:39.159Z,16.95
2022-08-22T18:47:36.669Z,22.17
2022-08-22T18:50:27.023Z,14.90
2022-08-22T18:52:57.591Z,16.52
2022-08-22T18:55:45.278Z,16.40
2022-08-22T18:58:36.450Z,12.50
2022-08-22T19:01:36.272Z,11.65
2022-08-22T19:04:26.977Z,8.93
2022-08-22T19:07:24.598Z,11.07
2022-08-22T19:10:52.651Z,11.10
2022-08-22T19:13:54.663Z,11.45
2022-08-22T19:16:55.739Z,10.23
2022-08-22T19:20:08.649Z,9.38
2022-08-22T19:22:37.668Z,10.98
2022-08-22T19:25:21.803Z,7.75
2022-08-22T19:28:10.852Z,11.20
2022-08-22T19:30:45.599Z,8.23
2022-08-22T19:33:34.614Z,9.63
2022-08-22T19:36:29.374Z,8.60
2022-08-22T19:39:08.853Z,8.98
2022-08-22T19:41:53.296Z,14.27
2022-08-22T19:44:20.700Z,9.88
2022-08-22T19:47:27.077Z,10.82
2022-08-22T19:50:23.840Z,11.07
2022-08-22T19:53:00.400Z,14.70
2022-08-22T19:55:39.409Z,13.88
2022-08-22T19:58:24.225Z,11.13
2022-08-22T20:01:40.412Z,10.15
2022-08-22T20:04:39.853Z,10.25
2022-08-22T20:07:51.004Z,19.05
2022-08-22T20:11:02.930Z,12.88
2022-08-22T20:13:36.221Z,18.25
2022-08-22T20:16:10.740Z,11.18
2022-08-22T20:19:06.376Z,14.70
2022-08-22T20:21:49.045Z,17.23
2022-08-22T20:25:17.016Z,8.73
2022-08-22T20:28:04.494Z,9.88
2022-08-22T20:30:39.692Z,7.95
2022-08-22T20:33:23.716Z,4.80
2022-08-22T20:36:01.716Z,67.28
2022-08-22T20:38:55.464Z,4.15
2022-08-22T20:41:40.453Z,4.68
2022-08-22T20:44:22.922Z,5.47
2022-08-22T20:47:06.043Z,6.82
2022-08-22T20:49:45.438Z,5.35
2022-08-22T20:52:26.732Z,3.25
2022-08-22T20:55:12.070Z,3.53
2022-08-22T20:58:02.538Z,9.85
2022-08-22T21:00:48.271Z,1.70
2022-08-22T21:03:44.681Z,5.47
2022-08-22T21:06:20.968Z,6.32
2022-08-22T21:09:12.637Z,3.00
2022-08-22T21:11:51.356Z,1.92
2022-08-22T21:14:26.247Z,2.25
2022-08-22T21:16:54.317Z,4.95
2022-08-22T21:19:29.826Z,2.80
2022-08-22T21:22:24.655Z,8.93
2022-08-22T21:25:00.687Z,3.78
2022-08-22T21:27:34.518Z,3.75
2022-08-22T21:30:08.684Z,4.43
2022-08-22T21:32:48.527Z,4.97
2022-08-22T21:35:35.706Z,5.68
2022-08-22T21:38:04.242Z,9.20
2022-08-22T21:40:37.180Z,4.72
2022-08-22T21:43:32.821Z,6.68
2022-08-22T21:46:00.385Z,4.97
2022-08-22T21:48:56.748Z,6.13
2022-08-22T21:51:45.745Z,4.57
2022-08-22T21:54:29.332Z,4.68
2022-08-22T21:57:10.621Z,8.27
2022-08-22T21:59:51.450Z,6.00
2022-08-22T22:02:31.217Z,9.88
2022-08-22T22:05:00.792Z,8.35
2022-08-22T22:09:57.209Z,3.42
2022-08-22T22:12:25.535Z,6.68
2022-08-22T22:14:52.996Z,5.10
2022-08-22T22:17:20.642Z,8.93
2022-08-22T22:19:48.174Z,5.43
2022-08-22T22:22:16.566Z,3.75
2022-08-22T22:24:43.965Z,6.40
2022-08-22T22:27:16.383Z,9.77
2022-08-22T22:29:44.615Z,6.38
2022-08-22T22:32:11.980Z,8.20
2022-08-22T22:34:39.392Z,9.73
2022-08-22T22:37:09.318Z,15.10
2022-08-22T22:39:37.195Z,11.38
2022-08-22T22:42:05.238Z,9.55
2022-08-22T22:44:32.728Z,8.25
2022-08-22T22:47:02.709Z,11.27
2022-08-22T22:49:32.099Z,12.00
2022-08-22T22:52:01.239Z,67.88
2022-08-22T22:54:34.323Z,48.55
2022-08-22T22:57:02.090Z,55.80
2022-08-22T22:59:29.419Z,91.03
2022-08-22T23:04:45.882Z,76.82
2022-08-22T23:07:15.288Z,24.77
2022-08-22T23:09:45.069Z,45.60
2022-08-22T23:12:14.692Z,32.25
2022-08-22T23:14:42.184Z,20.90
2022-08-22T23:17:09.880Z,9.43
2022-08-22T23:19:38.958Z,9.20
2022-08-22T23:22:08.188Z,13.90
2022-08-22T23:24:37.534Z,10.35
2022-08-22T23:27:06.920Z,10.00
2022-08-22T23:29:36.144Z,8.98
2022-08-22T23:32:05.353Z,11.93
2022-08-22T23:34:37.553Z,12.50
2022-08-22T23:37:08.147Z,17.60
2022-08-22T23:39:38.245Z,16.08
2022-08-22T23:42:07.695Z,40.70
2022-08-22T23:44:37.802Z,53.53
2022-08-22T23:47:07.301Z,17.33
2022-08-22T23:49:35.696Z,51.38
2022-08-22T23:52:04.141Z,16.85
2022-08-22T23:54:31.610Z,13.38
2022-08-22T23:57:01.988Z,7.63
